Weather History for Warroad, MN

Change the Weather History Date:

Thursday, January 2, 2014

  Actual Average Record
Temperature  
Mean Temperature -20 °F -  
Max Temperature -4 °F 12 °F 38 °F (1964)
Min Temperature -36 °F -5 °F -36 °F (1968)
Degree Days  
Heating Degree Days 85    
Moisture  
Dew Point -28 °F    
Average Humidity 68    
Maximum Humidity 84    
Minimum Humidity 60    
Precipitation  
Precipitation 0.00 in - - ()
Sea Level Pressure  
Sea Level Pressure 30.35 in    
Wind  
Wind Speed 2 mph (SSW)    
Max Wind Speed 10 mph    
Max Gust Speed -    
Visibility 10 miles    
Events      
Averages and records for this station are not official NWS values.
T = Trace of Precipitation, MM = Missing Value Source: NWS Daily Summary

Daily Weather History Graph

Daily Weather History Graph

Search for Another Location

Airport:

Trip Planner

Search our weather history database for the weather conditions in past years. The results will help you decide how hot, cold, wet, or windy it might be!

Date:

Astronomy

Jan. 02, 2014 Rise Set
Actual Time 8:15 AM CST 4:36 PM CST
Civil Twilight 7:38 AM CST 5:13 PM CST
Nautical Twilight 6:57 AM CST 5:53 PM CST
Astronomical Twilight 6:19 AM CST 6:31 PM CST
Moon 8:47 AM CST (1/2) 6:46 PM CST (1/2)
Length of Visible Light 9h 35m
Length of Day
8h 20m
Waxing Crescent, 3% of the Moon is Illuminated
Jan 2
Waxing Crescent
Jan 7
First Quarter
Jan 15
Full
Jan 23
Last Quarter
Jan 30
New

Hourly Weather History & Observations

Time (CST) Temp. Windchill Dew Point Humidity Pressure Visibility Wind Dir Wind Speed Gust Speed Precip Events Conditions
12:14 AM -32.8 °F - -41.8 °F 62% 30.43 in 10.0 mi Calm Calm - N/A   Clear
12:34 AM -32.8 °F - -40.0 °F 68% 30.43 in 10.0 mi Calm Calm - N/A   Clear
12:54 AM -31.0 °F - -38.2 °F 68% 30.42 in 10.0 mi Calm Calm - N/A   Clear
1:14 AM -32.8 °F - -40.0 °F 68% 30.43 in 7.0 mi Calm Calm - N/A   Clear
1:34 AM -32.8 °F - -41.8 °F 62% 30.42 in 7.0 mi Calm Calm - N/A   Clear
1:54 AM -32.8 °F - -41.8 °F 62% 30.43 in 10.0 mi Calm Calm - N/A   Clear
2:14 AM -32.8 °F - -41.8 °F 62% 30.43 in 10.0 mi Calm Calm - N/A   Clear
2:34 AM -32.8 °F - -41.8 °F 62% 30.43 in 10.0 mi Calm Calm - N/A   Clear
2:54 AM -32.8 °F - -41.8 °F 62% 30.43 in 10.0 mi Calm Calm - N/A   Clear
3:14 AM -32.8 °F -45.3 °F -40.0 °F 68% 30.43 in 10.0 mi SSW 3.5 mph - N/A   Clear
3:34 AM -32.8 °F -45.3 °F -41.8 °F 62% 30.43 in 10.0 mi SSW 3.5 mph - N/A   Clear
3:54 AM -34.6 °F - -41.8 °F 68% 30.42 in 5.0 mi Calm Calm - N/A   Haze
4:14 AM -34.6 °F - -43.6 °F 61% 30.42 in 10.0 mi Calm Calm - N/A   Clear
4:34 AM -34.6 °F - -43.6 °F 61% 30.42 in 10.0 mi Calm Calm - N/A   Clear
4:54 AM -34.6 °F - -43.6 °F 61% 30.43 in 10.0 mi Calm Calm - N/A   Clear
5:14 AM -34.6 °F -47.4 °F -43.6 °F 61% 30.43 in 10.0 mi West 3.5 mph - N/A   Clear
5:34 AM -36.4 °F - -43.6 °F 67% 30.43 in 7.0 mi Calm Calm - N/A   Clear
5:54 AM -34.6 °F - -43.6 °F 61% 30.42 in 10.0 mi Calm Calm - N/A   Clear
6:14 AM -36.4 °F - -43.6 °F 67% 30.42 in 10.0 mi Calm Calm - N/A   Clear
6:34 AM -34.6 °F -47.4 °F -43.6 °F 61% 30.41 in 10.0 mi SSE 3.5 mph - N/A   Clear
6:54 AM -34.6 °F - -43.6 °F 61% 30.41 in 10.0 mi Calm Calm - N/A   Clear
7:14 AM -34.6 °F - -43.6 °F 61% 30.41 in 10.0 mi Calm Calm - N/A   Clear
7:34 AM -34.6 °F - -41.8 °F 68% 30.41 in 7.0 mi Calm Calm - N/A   Clear
7:54 AM -36.4 °F - -45.4 °F 61% 30.42 in 10.0 mi Calm Calm - N/A   Clear
8:13 AM -36.4 °F - -43.6 °F 67% 30.42 in 10.0 mi Calm Calm - N/A   Clear
8:34 AM -34.6 °F -47.4 °F -43.6 °F 61% 30.44 in 7.0 mi SSW 3.5 mph - N/A   Clear
8:54 AM -34.6 °F - -41.8 °F 68% 30.43 in 7.0 mi Calm Calm - N/A   Clear
9:14 AM -34.6 °F -47.4 °F -41.8 °F 68% 30.44 in 10.0 mi SSW 3.5 mph - N/A   Clear
9:34 AM -32.8 °F -48.2 °F -40.0 °F 68% 30.44 in 10.0 mi SSW 4.6 mph - N/A   Clear
9:54 AM -31.0 °F - -38.2 °F 68% 30.44 in 10.0 mi Calm Calm - N/A   Clear
10:12 AM -27.4 °F - -34.6 °F 69% 30.43 in 10.0 mi North - - N/A   Clear
10:34 AM -20.2 °F -33.5 °F -25.6 °F 76% 30.43 in 10.0 mi SSW 4.6 mph - N/A   Clear
10:54 AM -16.6 °F -26.8 °F -23.8 °F 70% 30.42 in 10.0 mi SSW 3.5 mph - N/A   Clear
11:13 AM -16.6 °F - -23.8 °F 70% 30.41 in 10.0 mi Calm Calm - N/A   Clear
11:34 AM -16.6 °F -26.8 °F -22.0 °F 76% 30.42 in 10.0 mi South 3.5 mph - N/A   Clear
11:54 AM -9.4 °F - -16.6 °F 71% 30.41 in 10.0 mi Calm Calm - N/A   Clear
12:14 PM -9.4 °F - -16.6 °F 71% 30.40 in 10.0 mi Calm Calm - N/A   Clear
12:34 PM -7.6 °F - -13.0 °F 77% 30.39 in 10.0 mi Calm Calm - N/A   Clear
12:54 PM -9.4 °F - -14.8 °F 77% 30.39 in 10.0 mi Calm Calm - N/A   Clear
1:14 PM -5.8 °F -16.7 °F -13.0 °F 71% 30.38 in 10.0 mi SW 4.6 mph - N/A   Clear
1:34 PM -5.8 °F -21.2 °F -14.8 °F 65% 30.38 in 10.0 mi WSW 8.1 mph - N/A   Clear
1:54 PM -5.8 °F -19.9 °F -14.8 °F 65% 30.38 in 10.0 mi SW 6.9 mph - N/A   Clear
2:14 PM -4.0 °F -20.2 °F -13.0 °F 65% 30.38 in 10.0 mi WSW 9.2 mph - N/A   Clear
2:34 PM -4.0 °F -19.0 °F -14.8 °F 60% 30.38 in 10.0 mi WSW 8.1 mph - N/A   Clear
2:54 PM -4.0 °F -17.8 °F -14.8 °F 60% 30.37 in 10.0 mi SSW 6.9 mph - N/A   Clear
3:11 PM -5.8 °F -21.2 °F -14.8 °F 65% 30.37 in - SW 8.1 mph - N/A   Clear
3:32 PM -5.8 °F -19.9 °F -14.8 °F 65% 30.37 in 10.0 mi SW 6.9 mph - N/A   Clear
3:54 PM -5.8 °F -18.4 °F -14.8 °F 65% 30.37 in 10.0 mi SSW 5.8 mph - N/A   Clear
4:14 PM - - - N/A% 30.36 in 10.0 mi SSW 4.6 mph - N/A   Clear
4:34 PM -7.6 °F -18.8 °F -14.8 °F 71% 30.35 in 10.0 mi SSW 4.6 mph - N/A   Clear
4:54 PM -9.4 °F -18.6 °F -16.6 °F 71% 30.33 in 10.0 mi South 3.5 mph - N/A   Clear
5:14 PM -9.4 °F -22.7 °F -16.6 °F 71% 30.32 in 10.0 mi SSW 5.8 mph - N/A   Clear
5:34 PM -11.2 °F -20.6 °F -18.4 °F 70% 30.32 in 10.0 mi South 3.5 mph - N/A   Clear
5:54 PM -11.2 °F -20.6 °F -16.6 °F 77% 30.30 in 10.0 mi South 3.5 mph - N/A   Clear
6:14 PM -11.2 °F -23.0 °F -18.4 °F 70% 30.30 in 10.0 mi SSE 4.6 mph - N/A   Clear
6:34 PM -11.2 °F -26.4 °F -18.4 °F 70% 30.29 in 10.0 mi South 6.9 mph - N/A   Clear
6:54 PM -11.2 °F -23.0 °F -18.4 °F 70% 30.28 in 10.0 mi South 4.6 mph - N/A   Clear
7:13 PM -11.2 °F -20.6 °F -18.4 °F 70% 30.28 in 10.0 mi South 3.5 mph - N/A   Clear
7:34 PM -13.0 °F -22.7 °F -18.4 °F 77% 30.27 in 10.0 mi South 3.5 mph - N/A   Clear
7:54 PM -13.0 °F -22.7 °F -18.4 °F 77% 30.26 in 10.0 mi South 3.5 mph - N/A   Clear
8:14 PM -14.8 °F -29.1 °F -18.4 °F 84% 30.24 in 10.0 mi South 5.8 mph - N/A   Clear
8:34 PM -13.0 °F -25.1 °F -18.4 °F 77% 30.22 in 10.0 mi South 4.6 mph - N/A   Clear
8:54 PM -11.2 °F -23.0 °F -18.4 °F 70% 30.20 in 10.0 mi South 4.6 mph - N/A   Clear
9:14 PM -11.2 °F -23.0 °F -16.6 °F 77% 30.20 in 10.0 mi South 4.6 mph - N/A   Clear
9:34 PM -9.4 °F -22.7 °F -16.6 °F 71% 30.18 in 10.0 mi South 5.8 mph - N/A   Clear
9:53 PM -9.4 °F -20.9 °F -16.6 °F 71% 30.17 in 10.0 mi South 4.6 mph - N/A   Clear
10:14 PM -9.4 °F -26.8 °F -16.6 °F 71% 30.14 in 10.0 mi South 9.2 mph - N/A   Clear
10:34 PM -9.4 °F -27.9 °F -14.8 °F 77% 30.12 in 10.0 mi South 10.4 mph - N/A   Clear
10:53 PM -7.6 °F -25.7 °F -14.8 °F 71% 30.10 in 10.0 mi South 10.4 mph - N/A   Clear
11:14 PM -7.6 °F -20.6 °F -14.8 °F 71% 30.10 in 10.0 mi South 5.8 mph - N/A   Clear
11:34 PM -7.6 °F -20.6 °F -14.8 °F 71% 30.08 in 10.0 mi South 5.8 mph - N/A   Clear
11:54 PM -5.8 °F -19.9 °F -13.0 °F 71% 30.07 in 10.0 mi South 6.9 mph - N/A   Clear